Bonanza, Idaho
Current Conditions -  °F | °C
As of 12:55 PM on Wednesday 28 Jan 2015 (Local Time) from KLLJ Reporting Station
Overcast Overcast  
Wind Chill: 35°   Ceiling: 600
Heat Index: 35°   Visibility: 10mi
Dew Point: 33°   Wind: 3mph
Humidity: 92%   Direction: 320°NW
Pressure: 30.31"   Gusts: NA
Location:  44.3379°N, 114.824°W
Report Text: KLLJ 281955Z AUTO 32003KT 10SM OVC006 02/01 A3031 RMK AO2 SLP279 T00170006
Loading
Personal Weather Stations






























Interactive Weather Map New forecast layout! Learn more

10-Day Weather Forecast

Advertisements
Track Severe Weather on mobile